sensor_id;sensor_type;location;lat;lon;timestamp;P1;durP1;ratioP1;P2;durP2;ratioP2
56511;SDS011;42408;53.238;5.686;2024-03-08T00:01:53;33.47;;;22.47;;
56511;SDS011;42408;53.238;5.686;2024-03-08T00:04:18;34.43;;;24.10;;
56511;SDS011;42408;53.238;5.686;2024-03-08T00:06:44;32.07;;;23.10;;
56511;SDS011;42408;53.238;5.686;2024-03-08T00:09:11;34.97;;;23.77;;
56511;SDS011;42408;53.238;5.686;2024-03-08T00:11:37;34.55;;;23.05;;
56511;SDS011;42408;53.238;5.686;2024-03-08T00:14:03;38.83;;;24.33;;
56511;SDS011;42408;53.238;5.686;2024-03-08T00:16:31;35.08;;;25.13;;
56511;SDS011;42408;53.238;5.686;2024-03-08T00:18:58;35.53;;;24.15;;
56511;SDS011;42408;53.238;5.686;2024-03-08T00:21:23;35.30;;;23.87;;
56511;SDS011;42408;53.238;5.686;2024-03-08T00:23:49;34.90;;;23.90;;
56511;SDS011;42408;53.238;5.686;2024-03-08T00:26:14;37.57;;;23.70;;
56511;SDS011;42408;53.238;5.686;2024-03-08T00:28:40;38.83;;;25.60;;
56511;SDS011;42408;53.238;5.686;2024-03-08T00:31:06;38.63;;;24.97;;
56511;SDS011;42408;53.238;5.686;2024-03-08T00:33:32;34.63;;;24.23;;
56511;SDS011;42408;53.238;5.686;2024-03-08T00:35:57;36.97;;;25.20;;
56511;SDS011;42408;53.238;5.686;2024-03-08T00:38:23;37.83;;;25.60;;
56511;SDS011;42408;53.238;5.686;2024-03-08T00:40:49;33.43;;;23.83;;
56511;SDS011;42408;53.238;5.686;2024-03-08T00:43:14;34.93;;;24.10;;
56511;SDS011;42408;53.238;5.686;2024-03-08T00:45:40;35.72;;;25.30;;
56511;SDS011;42408;53.238;5.686;2024-03-08T00:48:09;37.88;;;25.65;;
56511;SDS011;42408;53.238;5.686;2024-03-08T00:50:36;35.15;;;25.00;;
56511;SDS011;42408;53.238;5.686;2024-03-08T00:53:01;39.07;;;26.30;;
56511;SDS011;42408;53.238;5.686;2024-03-08T00:55:27;37.97;;;24.90;;
56511;SDS011;42408;53.238;5.686;2024-03-08T00:57:54;35.67;;;25.58;;
56511;SDS011;42408;53.238;5.686;2024-03-08T01:00:20;36.73;;;24.63;;
56511;SDS011;42408;53.238;5.686;2024-03-08T01:02:46;35.03;;;24.65;;
56511;SDS011;42408;53.238;5.686;2024-03-08T01:05:12;36.03;;;25.87;;
56511;SDS011;42408;53.238;5.686;2024-03-08T01:07:38;37.08;;;24.63;;
56511;SDS011;42408;53.238;5.686;2024-03-08T01:10:04;36.03;;;25.83;;
56511;SDS011;42408;53.238;5.686;2024-03-08T01:12:34;37.88;;;25.23;;
56511;SDS011;42408;53.238;5.686;2024-03-08T01:15:00;37.03;;;24.65;;
56511;SDS011;42408;53.238;5.686;2024-03-08T01:17:26;39.23;;;26.37;;
56511;SDS011;42408;53.238;5.686;2024-03-08T01:19:52;43.87;;;27.10;;
56511;SDS011;42408;53.238;5.686;2024-03-08T01:22:18;38.45;;;26.50;;
56511;SDS011;42408;53.238;5.686;2024-03-08T01:24:44;41.35;;;28.77;;
56511;SDS011;42408;53.238;5.686;2024-03-08T01:27:10;42.00;;;28.50;;
56511;SDS011;42408;53.238;5.686;2024-03-08T01:29:37;41.42;;;28.08;;
56511;SDS011;42408;53.238;5.686;2024-03-08T01:32:03;43.30;;;30.00;;
56511;SDS011;42408;53.238;5.686;2024-03-08T01:34:29;43.13;;;30.70;;
56511;SDS011;42408;53.238;5.686;2024-03-08T01:36:54;42.97;;;29.90;;
56511;SDS011;42408;53.238;5.686;2024-03-08T01:39:23;42.63;;;28.60;;
56511;SDS011;42408;53.238;5.686;2024-03-08T01:41:49;44.17;;;29.83;;
56511;SDS011;42408;53.238;5.686;2024-03-08T01:44:14;45.57;;;31.13;;
56511;SDS011;42408;53.238;5.686;2024-03-08T01:46:43;44.38;;;30.60;;
56511;SDS011;42408;53.238;5.686;2024-03-08T01:49:10;48.28;;;31.13;;
56511;SDS011;42408;53.238;5.686;2024-03-08T01:51:37;51.42;;;31.27;;
56511;SDS011;42408;53.238;5.686;2024-03-08T01:54:05;45.47;;;30.52;;
56511;SDS011;42408;53.238;5.686;2024-03-08T01:56:31;46.40;;;31.70;;
56511;SDS011;42408;53.238;5.686;2024-03-08T01:58:58;50.55;;;31.30;;
56511;SDS011;42408;53.238;5.686;2024-03-08T02:03:50;44.80;;;31.48;;
56511;SDS011;42408;53.238;5.686;2024-03-08T02:06:16;49.67;;;32.55;;
56511;SDS011;42408;53.238;5.686;2024-03-08T02:08:42;50.33;;;34.67;;
56511;SDS011;42408;53.238;5.686;2024-03-08T02:11:09;54.05;;;34.50;;
56511;SDS011;42408;53.238;5.686;2024-03-08T02:13:35;51.72;;;33.53;;
56511;SDS011;42408;53.238;5.686;2024-03-08T02:16:01;53.97;;;35.70;;
56511;SDS011;42408;53.238;5.686;2024-03-08T02:18:28;51.45;;;35.08;;
56511;SDS011;42408;53.238;5.686;2024-03-08T02:23:20;48.33;;;34.13;;
56511;SDS011;42408;53.238;5.686;2024-03-08T02:25:47;59.42;;;34.70;;
56511;SDS011;42408;53.238;5.686;2024-03-08T02:28:13;50.10;;;33.95;;
56511;SDS011;42408;53.238;5.686;2024-03-08T02:30:39;56.67;;;35.75;;
56511;SDS011;42408;53.238;5.686;2024-03-08T02:33:05;52.92;;;33.70;;
56511;SDS011;42408;53.238;5.686;2024-03-08T02:35:32;54.78;;;34.10;;
56511;SDS011;42408;53.238;5.686;2024-03-08T02:38:01;56.72;;;34.78;;
56511;SDS011;42408;53.238;5.686;2024-03-08T02:40:28;58.55;;;37.72;;
56511;SDS011;42408;53.238;5.686;2024-03-08T02:42:54;58.30;;;36.28;;
56511;SDS011;42408;53.238;5.686;2024-03-08T02:45:20;55.67;;;36.47;;
56511;SDS011;42408;53.238;5.686;2024-03-08T02:47:46;55.80;;;35.30;;
56511;SDS011;42408;53.238;5.686;2024-03-08T02:50:11;51.53;;;35.63;;
56511;SDS011;42408;53.238;5.686;2024-03-08T02:52:41;55.25;;;37.13;;
56511;SDS011;42408;53.238;5.686;2024-03-08T02:55:11;58.22;;;37.78;;
56511;SDS011;42408;53.238;5.686;2024-03-08T02:57:40;55.80;;;36.97;;
56511;SDS011;42408;53.238;5.686;2024-03-08T03:00:06;59.38;;;37.33;;
56511;SDS011;42408;53.238;5.686;2024-03-08T03:02:34;52.33;;;35.42;;
56511;SDS011;42408;53.238;5.686;2024-03-08T03:05:00;56.63;;;37.13;;
56511;SDS011;42408;53.238;5.686;2024-03-08T03:07:30;57.47;;;36.05;;
56511;SDS011;42408;53.238;5.686;2024-03-08T03:09:56;53.10;;;34.07;;
56511;SDS011;42408;53.238;5.686;2024-03-08T03:12:21;64.00;;;39.43;;
56511;SDS011;42408;53.238;5.686;2024-03-08T03:14:47;58.28;;;38.05;;
56511;SDS011;42408;53.238;5.686;2024-03-08T03:17:13;53.47;;;36.07;;
56511;SDS011;42408;53.238;5.686;2024-03-08T03:19:41;55.30;;;36.53;;
56511;SDS011;42408;53.238;5.686;2024-03-08T03:22:08;56.80;;;38.53;;
56511;SDS011;42408;53.238;5.686;2024-03-08T03:24:35;56.78;;;37.10;;
56511;SDS011;42408;53.238;5.686;2024-03-08T03:27:03;57.35;;;38.85;;
56511;SDS011;42408;53.238;5.686;2024-03-08T03:29:39;54.47;;;37.10;;
56511;SDS011;42408;53.238;5.686;2024-03-08T03:32:07;56.38;;;38.05;;
56511;SDS011;42408;53.238;5.686;2024-03-08T03:34:33;60.72;;;36.78;;
56511;SDS011;42408;53.238;5.686;2024-03-08T03:37:02;58.80;;;37.20;;
56511;SDS011;42408;53.238;5.686;2024-03-08T03:39:29;59.05;;;36.97;;
56511;SDS011;42408;53.238;5.686;2024-03-08T03:41:59;56.60;;;37.47;;
56511;SDS011;42408;53.238;5.686;2024-03-08T03:44:27;57.70;;;38.50;;
56511;SDS011;42408;53.238;5.686;2024-03-08T03:46:53;55.67;;;35.58;;
56511;SDS011;42408;53.238;5.686;2024-03-08T03:49:19;56.17;;;35.13;;
56511;SDS011;42408;53.238;5.686;2024-03-08T03:51:45;52.60;;;36.23;;
56511;SDS011;42408;53.238;5.686;2024-03-08T03:54:11;56.38;;;35.97;;
56511;SDS011;42408;53.238;5.686;2024-03-08T03:56:37;54.00;;;36.20;;
56511;SDS011;42408;53.238;5.686;2024-03-08T03:59:04;51.95;;;36.28;;
56511;SDS011;42408;53.238;5.686;2024-03-08T04:01:31;50.50;;;35.10;;
56511;SDS011;42408;53.238;5.686;2024-03-08T04:03:57;54.13;;;37.03;;
56511;SDS011;42408;53.238;5.686;2024-03-08T04:06:23;51.90;;;35.07;;
56511;SDS011;42408;53.238;5.686;2024-03-08T04:08:49;54.40;;;37.57;;
56511;SDS011;42408;53.238;5.686;2024-03-08T04:11:14;52.10;;;35.30;;
56511;SDS011;42408;53.238;5.686;2024-03-08T04:13:42;55.13;;;35.65;;
56511;SDS011;42408;53.238;5.686;2024-03-08T04:16:08;50.42;;;35.58;;
56511;SDS011;42408;53.238;5.686;2024-03-08T04:18:36;51.47;;;33.92;;
56511;SDS011;42408;53.238;5.686;2024-03-08T04:21:03;50.40;;;33.97;;
56511;SDS011;42408;53.238;5.686;2024-03-08T04:23:33;50.97;;;35.97;;
56511;SDS011;42408;53.238;5.686;2024-03-08T04:26:01;51.25;;;34.58;;
56511;SDS011;42408;53.238;5.686;2024-03-08T04:28:28;51.67;;;34.65;;
56511;SDS011;42408;53.238;5.686;2024-03-08T04:30:54;55.53;;;34.27;;
56511;SDS011;42408;53.238;5.686;2024-03-08T04:33:19;52.43;;;33.77;;
56511;SDS011;42408;53.238;5.686;2024-03-08T04:38:12;46.58;;;34.28;;
56511;SDS011;42408;53.238;5.686;2024-03-08T04:40:37;55.40;;;36.30;;
56511;SDS011;42408;53.238;5.686;2024-03-08T04:43:03;48.80;;;33.43;;
56511;SDS011;42408;53.238;5.686;2024-03-08T04:45:29;54.23;;;34.07;;
56511;SDS011;42408;53.238;5.686;2024-03-08T04:47:55;45.47;;;33.20;;
56511;SDS011;42408;53.238;5.686;2024-03-08T04:50:20;51.30;;;32.43;;
56511;SDS011;42408;53.238;5.686;2024-03-08T04:52:46;46.57;;;32.00;;
56511;SDS011;42408;53.238;5.686;2024-03-08T04:55:12;50.88;;;33.13;;
56511;SDS011;42408;53.238;5.686;2024-03-08T04:57:38;46.90;;;33.00;;
56511;SDS011;42408;53.238;5.686;2024-03-08T05:00:04;46.97;;;32.27;;
56511;SDS011;42408;53.238;5.686;2024-03-08T05:02:39;51.55;;;32.65;;
56511;SDS011;42408;53.238;5.686;2024-03-08T05:05:05;43.30;;;31.13;;
56511;SDS011;42408;53.238;5.686;2024-03-08T05:07:31;46.78;;;31.42;;
56511;SDS011;42408;53.238;5.686;2024-03-08T05:09:58;49.17;;;32.65;;
56511;SDS011;42408;53.238;5.686;2024-03-08T05:12:24;48.40;;;33.90;;
56511;SDS011;42408;53.238;5.686;2024-03-08T05:14:49;49.13;;;32.13;;
56511;SDS011;42408;53.238;5.686;2024-03-08T05:17:15;44.27;;;31.70;;
56511;SDS011;42408;53.238;5.686;2024-03-08T05:19:42;47.58;;;32.85;;
56511;SDS011;42408;53.238;5.686;2024-03-08T05:22:08;47.00;;;32.65;;
56511;SDS011;42408;53.238;5.686;2024-03-08T05:24:34;47.47;;;31.73;;
56511;SDS011;42408;53.238;5.686;2024-03-08T05:27:00;44.05;;;31.38;;
56511;SDS011;42408;53.238;5.686;2024-03-08T05:31:53;46.17;;;32.85;;
56511;SDS011;42408;53.238;5.686;2024-03-08T05:34:20;47.25;;;30.95;;
56511;SDS011;42408;53.238;5.686;2024-03-08T05:39:14;44.30;;;31.10;;
56511;SDS011;42408;53.238;5.686;2024-03-08T05:41:41;45.35;;;30.90;;
56511;SDS011;42408;53.238;5.686;2024-03-08T05:44:07;41.30;;;30.83;;
56511;SDS011;42408;53.238;5.686;2024-03-08T05:46:33;44.58;;;31.00;;
56511;SDS011;42408;53.238;5.686;2024-03-08T05:49:00;44.28;;;32.08;;
56511;SDS011;42408;53.238;5.686;2024-03-08T05:51:30;47.17;;;30.80;;
56511;SDS011;42408;53.238;5.686;2024-03-08T05:54:02;44.90;;;30.60;;
56511;SDS011;42408;53.238;5.686;2024-03-08T05:56:30;46.20;;;31.02;;
56511;SDS011;42408;53.238;5.686;2024-03-08T05:58:56;45.63;;;29.92;;
56511;SDS011;42408;53.238;5.686;2024-03-08T06:01:23;47.92;;;31.75;;
56511;SDS011;42408;53.238;5.686;2024-03-08T06:03:49;45.45;;;31.40;;
56511;SDS011;42408;53.238;5.686;2024-03-08T06:06:15;48.03;;;33.90;;
56511;SDS011;42408;53.238;5.686;2024-03-08T06:08:41;42.55;;;30.80;;
56511;SDS011;42408;53.238;5.686;2024-03-08T06:11:08;39.92;;;29.00;;
56511;SDS011;42408;53.238;5.686;2024-03-08T06:13:34;44.97;;;31.33;;
56511;SDS011;42408;53.238;5.686;2024-03-08T06:16:01;47.78;;;31.77;;
56511;SDS011;42408;53.238;5.686;2024-03-08T06:18:30;44.85;;;31.20;;
56511;SDS011;42408;53.238;5.686;2024-03-08T06:20:56;41.13;;;29.33;;
56511;SDS011;42408;53.238;5.686;2024-03-08T06:23:22;45.00;;;30.97;;
56511;SDS011;42408;53.238;5.686;2024-03-08T06:25:48;45.17;;;31.25;;
56511;SDS011;42408;53.238;5.686;2024-03-08T06:28:14;44.23;;;30.37;;
56511;SDS011;42408;53.238;5.686;2024-03-08T06:30:39;43.03;;;30.43;;
56511;SDS011;42408;53.238;5.686;2024-03-08T06:33:05;45.67;;;31.00;;
56511;SDS011;42408;53.238;5.686;2024-03-08T06:35:32;47.83;;;33.15;;
56511;SDS011;42408;53.238;5.686;2024-03-08T06:37:58;42.90;;;30.27;;
56511;SDS011;42408;53.238;5.686;2024-03-08T06:40:24;43.97;;;30.70;;
56511;SDS011;42408;53.238;5.686;2024-03-08T06:42:49;44.40;;;31.60;;
56511;SDS011;42408;53.238;5.686;2024-03-08T06:45:17;44.63;;;32.03;;
56511;SDS011;42408;53.238;5.686;2024-03-08T06:47:45;41.13;;;28.70;;
56511;SDS011;42408;53.238;5.686;2024-03-08T06:50:11;44.58;;;31.17;;
56511;SDS011;42408;53.238;5.686;2024-03-08T06:52:37;42.80;;;29.03;;
56511;SDS011;42408;53.238;5.686;2024-03-08T06:55:04;41.30;;;29.30;;
56511;SDS011;42408;53.238;5.686;2024-03-08T06:57:30;46.00;;;30.38;;
56511;SDS011;42408;53.238;5.686;2024-03-08T06:59:56;42.35;;;30.52;;
56511;SDS011;42408;53.238;5.686;2024-03-08T07:02:22;39.27;;;29.17;;
56511;SDS011;42408;53.238;5.686;2024-03-08T07:04:50;39.10;;;28.65;;
56511;SDS011;42408;53.238;5.686;2024-03-08T07:07:16;45.42;;;30.05;;
56511;SDS011;42408;53.238;5.686;2024-03-08T07:09:45;41.38;;;27.33;;
56511;SDS011;42408;53.238;5.686;2024-03-08T07:12:11;41.67;;;28.57;;
56511;SDS011;42408;53.238;5.686;2024-03-08T07:14:38;41.13;;;28.17;;
56511;SDS011;42408;53.238;5.686;2024-03-08T07:17:06;39.78;;;28.20;;
56511;SDS011;42408;53.238;5.686;2024-03-08T07:19:34;38.85;;;28.42;;
56511;SDS011;42408;53.238;5.686;2024-03-08T07:22:00;39.40;;;27.23;;
56511;SDS011;42408;53.238;5.686;2024-03-08T07:24:28;37.25;;;27.05;;
56511;SDS011;42408;53.238;5.686;2024-03-08T07:27:12;40.88;;;28.42;;
56511;SDS011;42408;53.238;5.686;2024-03-08T07:29:38;39.53;;;26.07;;
56511;SDS011;42408;53.238;5.686;2024-03-08T07:32:04;38.20;;;26.73;;
56511;SDS011;42408;53.238;5.686;2024-03-08T07:34:44;36.90;;;26.30;;
56511;SDS011;42408;53.238;5.686;2024-03-08T07:37:10;37.53;;;25.83;;
56511;SDS011;42408;53.238;5.686;2024-03-08T07:39:36;36.93;;;26.30;;
56511;SDS011;42408;53.238;5.686;2024-03-08T07:42:03;34.97;;;23.83;;
56511;SDS011;42408;53.238;5.686;2024-03-08T07:44:29;34.00;;;23.90;;
56511;SDS011;42408;53.238;5.686;2024-03-08T07:46:56;36.17;;;25.90;;
56511;SDS011;42408;53.238;5.686;2024-03-08T07:49:21;37.43;;;26.23;;
56511;SDS011;42408;53.238;5.686;2024-03-08T07:51:47;35.57;;;25.20;;
56511;SDS011;42408;53.238;5.686;2024-03-08T07:54:14;36.20;;;25.10;;
56511;SDS011;42408;53.238;5.686;2024-03-08T07:56:40;34.50;;;24.00;;
56511;SDS011;42408;53.238;5.686;2024-03-08T07:59:05;32.80;;;24.07;;
56511;SDS011;42408;53.238;5.686;2024-03-08T08:01:31;36.10;;;25.55;;
56511;SDS011;42408;53.238;5.686;2024-03-08T08:03:58;36.72;;;26.55;;
56511;SDS011;42408;53.238;5.686;2024-03-08T08:06:26;33.28;;;24.23;;
56511;SDS011;42408;53.238;5.686;2024-03-08T08:08:52;35.00;;;24.50;;
56511;SDS011;42408;53.238;5.686;2024-03-08T08:11:18;33.73;;;24.67;;
56511;SDS011;42408;53.238;5.686;2024-03-08T08:13:43;34.60;;;24.57;;
56511;SDS011;42408;53.238;5.686;2024-03-08T08:16:09;34.03;;;24.33;;
56511;SDS011;42408;53.238;5.686;2024-03-08T08:18:38;36.55;;;24.80;;
56511;SDS011;42408;53.238;5.686;2024-03-08T08:21:04;35.67;;;23.58;;
56511;SDS011;42408;53.238;5.686;2024-03-08T08:25:57;34.03;;;24.55;;
56511;SDS011;42408;53.238;5.686;2024-03-08T08:28:23;35.70;;;26.60;;
56511;SDS011;42408;53.238;5.686;2024-03-08T08:30:49;32.95;;;24.15;;
56511;SDS011;42408;53.238;5.686;2024-03-08T08:33:15;35.53;;;25.00;;
56511;SDS011;42408;53.238;5.686;2024-03-08T08:35:41;33.10;;;23.77;;
56511;SDS011;42408;53.238;5.686;2024-03-08T08:38:07;30.25;;;23.55;;
56511;SDS011;42408;53.238;5.686;2024-03-08T08:40:33;31.67;;;23.47;;
56511;SDS011;42408;53.238;5.686;2024-03-08T08:43:01;33.00;;;24.17;;
56511;SDS011;42408;53.238;5.686;2024-03-08T08:45:29;32.75;;;24.23;;
56511;SDS011;42408;53.238;5.686;2024-03-08T08:47:55;29.98;;;23.73;;
56511;SDS011;42408;53.238;5.686;2024-03-08T08:50:21;32.63;;;24.13;;
56511;SDS011;42408;53.238;5.686;2024-03-08T08:52:50;33.40;;;24.38;;
56511;SDS011;42408;53.238;5.686;2024-03-08T08:55:16;37.27;;;24.87;;
56511;SDS011;42408;53.238;5.686;2024-03-08T08:57:45;33.53;;;24.55;;
56511;SDS011;42408;53.238;5.686;2024-03-08T09:00:12;35.05;;;25.48;;
56511;SDS011;42408;53.238;5.686;2024-03-08T09:02:40;32.38;;;24.92;;
56511;SDS011;42408;53.238;5.686;2024-03-08T09:05:06;34.67;;;24.88;;
56511;SDS011;42408;53.238;5.686;2024-03-08T09:07:36;32.80;;;24.67;;
56511;SDS011;42408;53.238;5.686;2024-03-08T09:10:02;33.78;;;24.00;;
56511;SDS011;42408;53.238;5.686;2024-03-08T09:12:28;33.80;;;24.67;;
56511;SDS011;42408;53.238;5.686;2024-03-08T09:14:54;32.77;;;23.17;;
56511;SDS011;42408;53.238;5.686;2024-03-08T09:17:20;39.73;;;25.90;;
56511;SDS011;42408;53.238;5.686;2024-03-08T09:19:49;30.50;;;23.10;;
56511;SDS011;42408;53.238;5.686;2024-03-08T09:22:15;33.97;;;25.30;;
56511;SDS011;42408;53.238;5.686;2024-03-08T09:24:40;33.40;;;24.47;;
56511;SDS011;42408;53.238;5.686;2024-03-08T09:27:08;30.75;;;23.98;;
56511;SDS011;42408;53.238;5.686;2024-03-08T09:29:35;33.05;;;23.98;;
56511;SDS011;42408;53.238;5.686;2024-03-08T09:32:00;32.73;;;24.40;;
56511;SDS011;42408;53.238;5.686;2024-03-08T09:34:26;34.67;;;24.83;;
56511;SDS011;42408;53.238;5.686;2024-03-08T09:36:52;33.97;;;22.50;;
56511;SDS011;42408;53.238;5.686;2024-03-08T09:39:18;32.47;;;22.97;;
56511;SDS011;42408;53.238;5.686;2024-03-08T09:41:45;32.40;;;22.55;;
56511;SDS011;42408;53.238;5.686;2024-03-08T09:44:14;31.50;;;23.15;;
56511;SDS011;42408;53.238;5.686;2024-03-08T09:46:41;32.75;;;22.77;;
56511;SDS011;42408;53.238;5.686;2024-03-08T09:49:07;33.50;;;22.85;;
56511;SDS011;42408;53.238;5.686;2024-03-08T09:51:33;34.25;;;23.58;;
56511;SDS011;42408;53.238;5.686;2024-03-08T09:54:03;30.55;;;22.95;;
56511;SDS011;42408;53.238;5.686;2024-03-08T09:56:34;30.20;;;22.40;;
56511;SDS011;42408;53.238;5.686;2024-03-08T09:59:01;28.73;;;22.98;;
56511;SDS011;42408;53.238;5.686;2024-03-08T10:01:53;33.50;;;23.00;;
56511;SDS011;42408;53.238;5.686;2024-03-08T10:04:24;30.65;;;23.58;;
56511;SDS011;42408;53.238;5.686;2024-03-08T10:06:51;33.80;;;23.77;;
56511;SDS011;42408;53.238;5.686;2024-03-08T10:09:17;31.63;;;23.88;;
56511;SDS011;42408;53.238;5.686;2024-03-08T10:11:43;35.42;;;25.98;;
56511;SDS011;42408;53.238;5.686;2024-03-08T10:14:10;34.30;;;24.17;;
56511;SDS011;42408;53.238;5.686;2024-03-08T10:16:41;32.30;;;24.85;;
56511;SDS011;42408;53.238;5.686;2024-03-08T10:19:07;35.07;;;25.43;;
56511;SDS011;42408;53.238;5.686;2024-03-08T10:21:33;33.75;;;24.95;;
56511;SDS011;42408;53.238;5.686;2024-03-08T10:23:58;32.80;;;24.40;;
56511;SDS011;42408;53.238;5.686;2024-03-08T10:26:24;30.77;;;24.47;;
56511;SDS011;42408;53.238;5.686;2024-03-08T10:28:53;35.07;;;24.17;;
56511;SDS011;42408;53.238;5.686;2024-03-08T10:31:19;33.65;;;23.90;;
56511;SDS011;42408;53.238;5.686;2024-03-08T10:33:48;32.25;;;23.80;;
56511;SDS011;42408;53.238;5.686;2024-03-08T10:36:14;33.08;;;24.08;;
56511;SDS011;42408;53.238;5.686;2024-03-08T10:38:41;32.03;;;22.70;;
56511;SDS011;42408;53.238;5.686;2024-03-08T10:41:12;35.60;;;24.27;;
56511;SDS011;42408;53.238;5.686;2024-03-08T10:49:37;31.75;;;23.67;;
56511;SDS011;42408;53.238;5.686;2024-03-08T10:52:04;30.80;;;23.45;;
56511;SDS011;42408;53.238;5.686;2024-03-08T10:54:33;29.58;;;22.52;;
56511;SDS011;42408;53.238;5.686;2024-03-08T10:57:03;31.00;;;22.85;;
56511;SDS011;42408;53.238;5.686;2024-03-08T10:59:31;30.27;;;22.90;;
56511;SDS011;42408;53.238;5.686;2024-03-08T11:01:58;30.25;;;22.33;;
56511;SDS011;42408;53.238;5.686;2024-03-08T11:04:25;31.35;;;22.73;;
56511;SDS011;42408;53.238;5.686;2024-03-08T11:06:51;32.77;;;23.60;;
56511;SDS011;42408;53.238;5.686;2024-03-08T11:09:32;30.85;;;23.02;;
56511;SDS011;42408;53.238;5.686;2024-03-08T11:12:36;32.85;;;22.92;;
56511;SDS011;42408;53.238;5.686;2024-03-08T11:20:12;32.55;;;23.83;;
56511;SDS011;42408;53.238;5.686;2024-03-08T11:22:41;32.67;;;22.90;;
56511;SDS011;42408;53.238;5.686;2024-03-08T11:25:30;33.53;;;24.13;;
56511;SDS011;42408;53.238;5.686;2024-03-08T11:28:20;30.90;;;23.70;;
56511;SDS011;42408;53.238;5.686;2024-03-08T11:33:24;33.78;;;23.83;;
56511;SDS011;42408;53.238;5.686;2024-03-08T11:35:52;33.13;;;23.67;;
56511;SDS011;42408;53.238;5.686;2024-03-08T11:38:28;33.97;;;22.90;;
56511;SDS011;42408;53.238;5.686;2024-03-08T11:40:56;31.58;;;23.25;;
56511;SDS011;42408;53.238;5.686;2024-03-08T11:43:22;29.67;;;22.70;;
56511;SDS011;42408;53.238;5.686;2024-03-08T11:45:48;33.90;;;23.50;;
56511;SDS011;42408;53.238;5.686;2024-03-08T11:48:13;30.47;;;23.63;;
56511;SDS011;42408;53.238;5.686;2024-03-08T11:50:39;33.93;;;24.40;;
56511;SDS011;42408;53.238;5.686;2024-03-08T11:53:05;31.40;;;21.83;;
56511;SDS011;42408;53.238;5.686;2024-03-08T11:55:33;30.10;;;22.67;;
56511;SDS011;42408;53.238;5.686;2024-03-08T11:58:04;34.42;;;25.52;;
56511;SDS011;42408;53.238;5.686;2024-03-08T12:00:33;33.10;;;24.38;;
56511;SDS011;42408;53.238;5.686;2024-03-08T12:05:32;31.75;;;23.05;;
56511;SDS011;42408;53.238;5.686;2024-03-08T12:07:58;28.38;;;22.88;;
56511;SDS011;42408;53.238;5.686;2024-03-08T12:10:27;31.27;;;22.48;;
56511;SDS011;42408;53.238;5.686;2024-03-08T12:12:54;31.17;;;23.43;;
56511;SDS011;42408;53.238;5.686;2024-03-08T12:15:21;33.92;;;24.52;;
56511;SDS011;42408;53.238;5.686;2024-03-08T12:17:52;29.38;;;22.35;;
56511;SDS011;42408;53.238;5.686;2024-03-08T12:22:47;32.03;;;22.30;;
56511;SDS011;42408;53.238;5.686;2024-03-08T12:27:40;32.78;;;21.77;;
56511;SDS011;42408;53.238;5.686;2024-03-08T12:30:22;28.38;;;22.05;;
56511;SDS011;42408;53.238;5.686;2024-03-08T12:32:58;30.27;;;22.20;;
56511;SDS011;42408;53.238;5.686;2024-03-08T12:35:27;32.33;;;23.30;;
56511;SDS011;42408;53.238;5.686;2024-03-08T12:37:55;28.52;;;20.88;;
56511;SDS011;42408;53.238;5.686;2024-03-08T12:43:00;27.73;;;21.02;;
56511;SDS011;42408;53.238;5.686;2024-03-08T12:45:27;29.50;;;21.95;;
56511;SDS011;42408;53.238;5.686;2024-03-08T12:47:53;28.30;;;21.17;;
56511;SDS011;42408;53.238;5.686;2024-03-08T12:52:46;31.40;;;22.05;;
56511;SDS011;42408;53.238;5.686;2024-03-08T12:55:13;29.00;;;22.10;;
56511;SDS011;42408;53.238;5.686;2024-03-08T12:57:41;29.83;;;22.10;;
56511;SDS011;42408;53.238;5.686;2024-03-08T13:00:07;29.05;;;22.38;;
56511;SDS011;42408;53.238;5.686;2024-03-08T13:02:38;30.10;;;22.35;;
56511;SDS011;42408;53.238;5.686;2024-03-08T13:05:04;33.60;;;25.08;;
56511;SDS011;42408;53.238;5.686;2024-03-08T13:07:30;33.60;;;24.52;;
56511;SDS011;42408;53.238;5.686;2024-03-08T13:09:56;29.27;;;22.70;;
56511;SDS011;42408;53.238;5.686;2024-03-08T13:12:24;33.08;;;22.80;;
56511;SDS011;42408;53.238;5.686;2024-03-08T13:14:50;32.10;;;23.80;;
56511;SDS011;42408;53.238;5.686;2024-03-08T13:17:16;33.03;;;24.83;;
56511;SDS011;42408;53.238;5.686;2024-03-08T13:19:46;31.02;;;22.73;;
56511;SDS011;42408;53.238;5.686;2024-03-08T13:22:11;34.33;;;24.73;;
56511;SDS011;42408;53.238;5.686;2024-03-08T13:24:40;33.80;;;25.30;;
56511;SDS011;42408;53.238;5.686;2024-03-08T13:27:09;35.55;;;24.80;;
56511;SDS011;42408;53.238;5.686;2024-03-08T13:29:49;32.22;;;23.98;;
56511;SDS011;42408;53.238;5.686;2024-03-08T13:32:15;36.63;;;26.73;;
56511;SDS011;42408;53.238;5.686;2024-03-08T13:34:45;33.45;;;24.73;;
56511;SDS011;42408;53.238;5.686;2024-03-08T13:37:12;31.48;;;23.25;;
56511;SDS011;42408;53.238;5.686;2024-03-08T13:39:41;32.22;;;24.00;;
56511;SDS011;42408;53.238;5.686;2024-03-08T13:42:17;30.92;;;23.98;;
56511;SDS011;42408;53.238;5.686;2024-03-08T13:44:44;33.13;;;24.33;;
56511;SDS011;42408;53.238;5.686;2024-03-08T13:47:14;36.20;;;24.52;;
56511;SDS011;42408;53.238;5.686;2024-03-08T13:52:06;31.13;;;24.15;;
56511;SDS011;42408;53.238;5.686;2024-03-08T13:54:33;34.58;;;24.02;;
56511;SDS011;42408;53.238;5.686;2024-03-08T13:57:03;32.78;;;23.83;;
56511;SDS011;42408;53.238;5.686;2024-03-08T13:59:35;28.57;;;22.73;;
56511;SDS011;42408;53.238;5.686;2024-03-08T14:02:02;32.83;;;23.50;;
56511;SDS011;42408;53.238;5.686;2024-03-08T14:04:28;31.83;;;24.80;;
56511;SDS011;42408;53.238;5.686;2024-03-08T14:06:54;30.55;;;22.80;;
56511;SDS011;42408;53.238;5.686;2024-03-08T14:09:24;35.55;;;22.65;;
56511;SDS011;42408;53.238;5.686;2024-03-08T14:11:51;32.43;;;22.60;;
56511;SDS011;42408;53.238;5.686;2024-03-08T14:14:20;29.00;;;22.80;;
56511;SDS011;42408;53.238;5.686;2024-03-08T14:16:48;29.33;;;21.65;;
56511;SDS011;42408;53.238;5.686;2024-03-08T14:19:17;31.63;;;22.30;;
56511;SDS011;42408;53.238;5.686;2024-03-08T14:21:43;28.27;;;22.73;;
56511;SDS011;42408;53.238;5.686;2024-03-08T14:24:09;36.07;;;25.10;;
56511;SDS011;42408;53.238;5.686;2024-03-08T14:26:35;30.37;;;22.13;;
56511;SDS011;42408;53.238;5.686;2024-03-08T14:29:03;28.63;;;22.13;;
56511;SDS011;42408;53.238;5.686;2024-03-08T14:31:30;31.52;;;22.95;;
56511;SDS011;42408;53.238;5.686;2024-03-08T14:33:56;30.63;;;22.00;;
56511;SDS011;42408;53.238;5.686;2024-03-08T14:36:24;29.63;;;22.48;;
56511;SDS011;42408;53.238;5.686;2024-03-08T14:41:16;28.10;;;20.10;;
56511;SDS011;42408;53.238;5.686;2024-03-08T14:43:42;29.67;;;21.23;;
56511;SDS011;42408;53.238;5.686;2024-03-08T14:46:10;27.85;;;21.33;;
56511;SDS011;42408;53.238;5.686;2024-03-08T14:48:42;29.08;;;21.33;;
56511;SDS011;42408;53.238;5.686;2024-03-08T14:51:08;30.25;;;21.73;;
56511;SDS011;42408;53.238;5.686;2024-03-08T14:53:36;28.58;;;21.95;;
56511;SDS011;42408;53.238;5.686;2024-03-08T14:56:06;30.67;;;21.23;;
56511;SDS011;42408;53.238;5.686;2024-03-08T14:58:33;28.33;;;20.60;;
56511;SDS011;42408;53.238;5.686;2024-03-08T15:00:59;27.40;;;18.83;;
56511;SDS011;42408;53.238;5.686;2024-03-08T15:03:26;25.83;;;19.95;;
56511;SDS011;42408;53.238;5.686;2024-03-08T15:05:52;36.33;;;21.13;;
56511;SDS011;42408;53.238;5.686;2024-03-08T15:10:45;27.20;;;20.90;;